createdAt,value
2022-10-05T00:01:25.247Z,2.00
2022-10-05T00:03:59.082Z,2.07
2022-10-05T00:06:29.828Z,1.70
2022-10-05T00:08:57.916Z,2.00
2022-10-05T00:11:25.937Z,1.77
2022-10-05T00:13:55.280Z,2.37
2022-10-05T00:16:23.276Z,1.97
2022-10-05T00:18:52.845Z,1.83
2022-10-05T00:21:23.703Z,1.70
2022-10-05T00:23:52.470Z,1.70
2022-10-05T00:26:22.640Z,1.60
2022-10-05T00:28:51.199Z,1.40
2022-10-05T00:31:24.410Z,1.67
2022-10-05T00:33:52.608Z,1.80
2022-10-05T00:36:20.761Z,2.03
2022-10-05T00:38:48.932Z,1.67
2022-10-05T00:41:24.188Z,1.90
2022-10-05T00:44:22.429Z,1.90
2022-10-05T00:46:57.777Z,1.80
2022-10-05T00:49:59.420Z,1.70
2022-10-05T00:52:35.255Z,1.57
2022-10-05T00:55:14.055Z,1.40
2022-10-05T00:57:54.018Z,1.83
2022-10-05T01:00:25.883Z,2.00
2022-10-05T01:03:02.582Z,2.13
2022-10-05T01:05:42.405Z,2.37
2022-10-05T01:08:19.122Z,1.97
2022-10-05T01:10:53.616Z,2.50
2022-10-05T01:13:29.068Z,1.90
2022-10-05T01:16:04.160Z,2.20
2022-10-05T01:18:41.713Z,2.03
2022-10-05T01:21:18.614Z,2.20
2022-10-05T01:24:19.326Z,1.23
2022-10-05T01:27:18.282Z,1.97
2022-10-05T01:29:54.595Z,2.27
2022-10-05T01:32:30.499Z,1.70
2022-10-05T01:35:06.689Z,1.60
2022-10-05T01:37:45.802Z,1.27
2022-10-05T01:40:19.737Z,1.60
2022-10-05T01:43:00.040Z,2.00
2022-10-05T01:45:39.219Z,1.60
2022-10-05T01:48:14.171Z,1.63
2022-10-05T01:50:51.469Z,1.50
2022-10-05T01:53:29.088Z,1.50
2022-10-05T01:56:04.650Z,1.40
2022-10-05T01:58:39.753Z,1.90
2022-10-05T02:01:17.972Z,1.30
2022-10-05T02:03:52.115Z,1.50
2022-10-05T02:06:24.264Z,1.67
2022-10-05T02:08:56.233Z,2.60
2022-10-05T02:11:24.278Z,2.20
2022-10-05T02:13:57.234Z,2.10
2022-10-05T02:16:32.207Z,2.17
2022-10-05T02:19:04.668Z,2.10
2022-10-05T02:21:35.828Z,1.80
2022-10-05T02:24:10.088Z,2.40
2022-10-05T02:26:40.118Z,2.13
2022-10-05T02:29:11.302Z,2.57
2022-10-05T02:31:46.030Z,1.47
2022-10-05T02:34:28.620Z,1.40
2022-10-05T02:37:14.669Z,1.67
2022-10-05T02:39:54.191Z,1.73
2022-10-05T02:42:29.952Z,1.60
2022-10-05T02:45:07.388Z,1.87
2022-10-05T02:47:48.186Z,1.67
2022-10-05T02:50:27.049Z,1.50
2022-10-05T02:53:01.382Z,1.30
2022-10-05T02:55:36.949Z,1.60
2022-10-05T02:58:11.193Z,2.10
2022-10-05T03:00:46.259Z,1.40
2022-10-05T03:03:22.753Z,1.30
2022-10-05T03:05:56.792Z,1.47
2022-10-05T03:08:32.961Z,1.60
2022-10-05T03:11:07.581Z,1.70
2022-10-05T03:13:43.457Z,1.40
2022-10-05T03:16:39.501Z,1.70
2022-10-05T03:19:22.939Z,1.63
2022-10-05T03:22:00.816Z,1.37
2022-10-05T03:24:42.850Z,1.30
2022-10-05T03:27:18.525Z,1.23
2022-10-05T03:29:56.902Z,1.27
2022-10-05T03:32:32.489Z,1.80
2022-10-05T03:35:07.508Z,1.73
2022-10-05T03:37:42.794Z,1.60
2022-10-05T03:40:21.496Z,1.50
2022-10-05T03:43:00.057Z,1.60
2022-10-05T03:45:35.643Z,2.20
2022-10-05T03:48:09.207Z,2.07
2022-10-05T03:50:47.031Z,2.50
2022-10-05T03:53:20.538Z,1.67
2022-10-05T03:55:53.060Z,1.47
2022-10-05T03:58:26.486Z,1.30
2022-10-05T04:00:59.156Z,1.20
2022-10-05T04:03:33.966Z,1.83
2022-10-05T04:06:10.112Z,1.20
2022-10-05T04:08:47.837Z,1.30
2022-10-05T04:11:21.918Z,1.50
2022-10-05T04:13:55.466Z,1.63
2022-10-05T04:16:27.957Z,1.50
2022-10-05T04:19:02.420Z,1.50
2022-10-05T04:21:35.833Z,1.40
2022-10-05T04:24:10.768Z,1.57
2022-10-05T04:26:44.855Z,1.40
2022-10-05T04:29:18.286Z,1.63
2022-10-05T04:32:14.536Z,1.77
2022-10-05T04:34:54.509Z,1.23
2022-10-05T04:37:35.473Z,1.67
2022-10-05T04:40:15.730Z,1.87
2022-10-05T04:42:53.680Z,1.33
2022-10-05T04:45:31.668Z,1.50
2022-10-05T04:48:25.875Z,2.20
2022-10-05T04:51:08.834Z,1.30
2022-10-05T04:53:46.470Z,1.23
2022-10-05T04:56:19.193Z,1.57
2022-10-05T04:59:03.489Z,2.27
2022-10-05T05:01:50.005Z,1.70
2022-10-05T05:04:35.305Z,1.37
2022-10-05T05:07:13.878Z,1.20
2022-10-05T05:10:23.136Z,1.37
2022-10-05T05:13:03.836Z,1.67
2022-10-05T05:15:43.099Z,1.37
2022-10-05T05:18:38.540Z,1.40
2022-10-05T05:21:12.689Z,1.20
2022-10-05T05:23:45.508Z,1.57
2022-10-05T05:26:24.190Z,2.00
2022-10-05T05:28:59.785Z,1.87
2022-10-05T05:31:36.128Z,1.37
2022-10-05T05:34:14.448Z,1.60
2022-10-05T05:36:54.420Z,1.83
2022-10-05T05:39:28.820Z,1.37
2022-10-05T05:42:05.058Z,1.93
2022-10-05T05:44:38.896Z,1.60
2022-10-05T05:47:18.650Z,1.50
2022-10-05T05:50:06.612Z,1.60
2022-10-05T05:52:40.440Z,1.70
2022-10-05T05:55:14.983Z,1.60
2022-10-05T05:57:49.819Z,1.53
2022-10-05T06:00:23.205Z,1.30
2022-10-05T06:02:57.826Z,2.03
2022-10-05T06:05:32.303Z,1.50
2022-10-05T06:08:08.132Z,1.70
2022-10-05T06:10:43.536Z,2.30
2022-10-05T06:13:19.109Z,2.53
2022-10-05T06:15:53.212Z,3.30
2022-10-05T06:18:23.365Z,1.50
2022-10-05T06:20:55.920Z,1.43
2022-10-05T06:23:29.559Z,1.83
2022-10-05T06:26:14.165Z,2.07
2022-10-05T06:28:43.921Z,1.50
2022-10-05T06:31:23.730Z,1.47
2022-10-05T06:33:54.841Z,2.17
2022-10-05T06:36:38.247Z,2.00
2022-10-05T06:39:54.594Z,1.60
2022-10-05T06:42:53.413Z,1.47
2022-10-05T06:45:31.840Z,2.10
2022-10-05T06:48:07.037Z,1.77
2022-10-05T06:50:39.635Z,2.20
2022-10-05T06:53:23.765Z,1.87
2022-10-05T06:55:56.838Z,1.70
2022-10-05T06:58:37.406Z,1.57
2022-10-05T07:01:13.093Z,2.33
2022-10-05T07:03:51.552Z,1.90
2022-10-05T07:06:25.692Z,1.83
2022-10-05T07:09:12.082Z,2.17
2022-10-05T07:12:04.739Z,2.47
2022-10-05T07:14:47.403Z,2.30
2022-10-05T07:17:29.245Z,3.37
2022-10-05T07:20:04.811Z,2.60
2022-10-05T07:22:51.859Z,2.60
2022-10-05T07:25:32.990Z,2.90
2022-10-05T07:28:07.769Z,2.50
2022-10-05T07:30:45.260Z,2.60
2022-10-05T07:33:22.800Z,3.60
2022-10-05T07:36:14.068Z,3.93
2022-10-05T07:38:49.493Z,5.53
2022-10-05T07:41:23.918Z,2.53
2022-10-05T07:44:02.354Z,2.10
2022-10-05T07:46:45.104Z,2.50
2022-10-05T07:49:23.007Z,2.80
2022-10-05T07:51:55.507Z,2.17
2022-10-05T07:54:27.468Z,2.67
2022-10-05T07:57:03.111Z,2.07
2022-10-05T07:59:37.350Z,2.80
2022-10-05T08:02:14.831Z,2.63
2022-10-05T08:04:53.875Z,1.97
2022-10-05T08:09:59.692Z,2.07
2022-10-05T08:12:33.352Z,2.10
2022-10-05T08:15:06.691Z,2.00
2022-10-05T08:17:44.448Z,2.00
2022-10-05T08:20:31.540Z,2.80
2022-10-05T08:23:03.483Z,2.40
2022-10-05T08:25:41.349Z,3.20
2022-10-05T08:28:18.578Z,2.40
2022-10-05T08:30:57.972Z,2.87
2022-10-05T08:33:31.649Z,2.10
2022-10-05T08:36:08.146Z,2.97
2022-10-05T08:38:36.577Z,3.03
2022-10-05T08:41:33.880Z,3.37
2022-10-05T08:44:49.701Z,2.83
2022-10-05T08:47:30.725Z,3.20
2022-10-05T08:50:19.189Z,2.70
2022-10-05T08:53:29.860Z,3.20
2022-10-05T08:56:28.667Z,3.03
2022-10-05T08:59:43.499Z,2.00
2022-10-05T09:02:22.709Z,2.50
2022-10-05T09:05:18.511Z,2.30
2022-10-05T09:08:10.313Z,2.40
2022-10-05T09:11:07.720Z,3.10
2022-10-05T09:14:15.221Z,2.67
2022-10-05T09:16:53.688Z,2.40
2022-10-05T09:19:54.976Z,2.23
2022-10-05T09:22:38.017Z,2.60
2022-10-05T09:25:22.152Z,2.57
2022-10-05T09:27:55.850Z,2.50
2022-10-05T09:30:41.898Z,2.50
2022-10-05T09:33:35.007Z,2.80
2022-10-05T09:36:42.933Z,2.60
2022-10-05T09:39:28.433Z,2.90
2022-10-05T09:42:16.243Z,4.33
2022-10-05T09:45:06.405Z,3.17
2022-10-05T09:48:01.516Z,2.50
2022-10-05T09:50:57.718Z,2.40
2022-10-05T09:53:52.399Z,2.77
2022-10-05T09:56:54.360Z,2.13
2022-10-05T09:59:59.782Z,2.13
2022-10-05T10:02:52.418Z,2.30
2022-10-05T10:05:37.740Z,2.20
2022-10-05T10:08:20.845Z,2.20
2022-10-05T10:11:21.323Z,2.47
2022-10-05T10:14:09.357Z,2.07
2022-10-05T10:17:01.313Z,2.30
2022-10-05T10:19:58.974Z,2.33
2022-10-05T10:22:52.425Z,2.33
2022-10-05T10:25:34.718Z,2.60
2022-10-05T10:28:34.326Z,2.30
2022-10-05T10:31:25.349Z,2.23
2022-10-05T10:34:21.470Z,1.93
2022-10-05T10:37:04.641Z,2.10
2022-10-05T10:39:45.202Z,1.90
2022-10-05T10:42:31.811Z,2.37
2022-10-05T10:45:20.577Z,3.00
2022-10-05T10:47:54.516Z,2.20
2022-10-05T10:50:59.235Z,2.60
2022-10-05T10:53:52.339Z,2.60
2022-10-05T10:56:35.887Z,1.93
2022-10-05T10:59:31.486Z,2.10
2022-10-05T11:02:25.147Z,2.13
2022-10-05T11:05:09.404Z,1.73
2022-10-05T11:08:08.770Z,1.90
2022-10-05T11:11:03.179Z,2.30
2022-10-05T11:14:10.385Z,1.93
2022-10-05T11:17:06.378Z,2.17
2022-10-05T11:20:03.609Z,1.60
2022-10-05T11:23:06.822Z,1.90
2022-10-05T11:25:55.176Z,2.00
2022-10-05T11:28:54.432Z,2.03
2022-10-05T11:31:39.034Z,1.93
2022-10-05T11:34:45.690Z,3.97
2022-10-05T11:37:49.803Z,2.33
2022-10-05T11:40:47.661Z,2.00
2022-10-05T11:43:41.730Z,1.57
2022-10-05T11:46:14.647Z,2.15
2022-10-05T11:48:55.491Z,2.10
2022-10-05T11:51:43.715Z,2.15
2022-10-05T11:54:27.046Z,2.05
2022-10-05T11:57:01.274Z,2.10
2022-10-05T11:59:40.083Z,2.90
2022-10-05T12:02:27.342Z,2.83
2022-10-05T12:05:03.830Z,2.27
2022-10-05T12:07:39.944Z,2.13
2022-10-05T12:10:24.467Z,1.90
2022-10-05T12:13:02.626Z,2.60
2022-10-05T12:15:40.807Z,1.40
2022-10-05T12:18:16.639Z,1.97
2022-10-05T12:20:50.548Z,2.00
2022-10-05T12:23:23.287Z,2.07
2022-10-05T12:25:58.148Z,2.30
2022-10-05T12:28:34.233Z,1.57
2022-10-05T12:31:15.383Z,2.00
2022-10-05T12:33:50.860Z,2.43
2022-10-05T12:36:26.333Z,1.67
2022-10-05T12:39:05.174Z,1.87
2022-10-05T12:41:37.230Z,1.97
2022-10-05T12:44:17.756Z,1.90
2022-10-05T12:46:55.312Z,1.93
2022-10-05T12:49:40.331Z,1.77
2022-10-05T12:52:21.511Z,1.50
2022-10-05T12:54:57.706Z,2.00
2022-10-05T12:57:36.326Z,1.50
2022-10-05T13:00:09.449Z,1.63
2022-10-05T13:02:45.158Z,1.30
2022-10-05T13:05:25.219Z,1.70
2022-10-05T13:08:21.297Z,1.40
2022-10-05T13:10:51.513Z,1.50
2022-10-05T13:13:36.051Z,1.43
2022-10-05T13:16:15.377Z,1.10
2022-10-05T13:18:58.920Z,1.30
2022-10-05T13:21:49.783Z,1.30
2022-10-05T13:24:24.030Z,1.10
2022-10-05T13:26:56.074Z,1.10
2022-10-05T13:29:33.144Z,1.37
2022-10-05T13:32:06.966Z,1.23
2022-10-05T13:34:41.839Z,1.27
2022-10-05T13:37:17.839Z,1.30
2022-10-05T13:39:57.872Z,1.87
2022-10-05T13:42:33.905Z,1.30
2022-10-05T13:45:11.224Z,1.30
2022-10-05T13:47:48.646Z,1.00
2022-10-05T13:50:22.428Z,1.30
2022-10-05T13:52:57.526Z,1.43
2022-10-05T13:55:38.916Z,1.20
2022-10-05T13:58:13.979Z,1.37
2022-10-05T14:00:49.429Z,2.20
2022-10-05T14:03:30.662Z,1.50
2022-10-05T14:06:02.508Z,1.50
2022-10-05T14:08:33.565Z,1.73
2022-10-05T14:11:21.258Z,1.77
2022-10-05T14:13:50.741Z,1.30
2022-10-05T14:16:24.092Z,1.70
2022-10-05T14:18:58.358Z,1.50
2022-10-05T14:21:31.195Z,1.37
2022-10-05T14:24:32.262Z,1.20
2022-10-05T14:27:22.029Z,1.13
2022-10-05T14:29:58.026Z,1.20
2022-10-05T14:32:27.955Z,1.17
2022-10-05T14:35:01.216Z,1.20
2022-10-05T14:37:44.418Z,1.10
2022-10-05T14:40:37.330Z,1.20
2022-10-05T14:43:20.055Z,0.93
2022-10-05T14:45:56.100Z,1.10
2022-10-05T14:48:27.855Z,1.00
2022-10-05T14:50:59.408Z,1.10
2022-10-05T14:53:39.610Z,1.40
2022-10-05T14:56:52.131Z,1.00
2022-10-05T14:59:35.444Z,1.23
2022-10-05T15:02:20.164Z,1.17
2022-10-05T15:04:58.932Z,1.33
2022-10-05T15:07:32.218Z,1.10
2022-10-05T15:10:29.693Z,1.10
2022-10-05T15:13:01.927Z,1.37
2022-10-05T15:15:37.188Z,1.40
2022-10-05T15:18:15.871Z,1.53
2022-10-05T15:20:53.623Z,1.07
2022-10-05T15:23:28.146Z,1.33
2022-10-05T15:26:08.555Z,1.00
2022-10-05T15:28:48.376Z,1.30
2022-10-05T15:31:30.198Z,1.10
2022-10-05T15:34:04.368Z,1.10
2022-10-05T15:36:39.276Z,1.10
2022-10-05T15:39:20.408Z,1.10
2022-10-05T15:42:01.088Z,1.17
2022-10-05T15:44:54.084Z,1.10
2022-10-05T15:47:26.869Z,1.20
2022-10-05T15:50:08.018Z,1.40
2022-10-05T15:52:45.224Z,1.17
2022-10-05T15:55:27.892Z,1.00
2022-10-05T15:58:21.670Z,1.20
2022-10-05T16:00:55.988Z,1.13
2022-10-05T16:03:30.198Z,2.17
2022-10-05T16:06:21.019Z,1.20
2022-10-05T16:09:03.679Z,1.50
2022-10-05T16:11:49.303Z,1.60
2022-10-05T16:14:33.353Z,1.20
2022-10-05T16:17:16.663Z,1.10
2022-10-05T16:19:55.353Z,1.37
2022-10-05T16:22:29.508Z,1.40
2022-10-05T16:25:08.883Z,1.50
2022-10-05T16:28:03.009Z,1.40
2022-10-05T16:30:44.705Z,1.40
2022-10-05T16:33:18.728Z,1.37
2022-10-05T16:35:55.817Z,1.40
2022-10-05T16:38:31.436Z,1.60
2022-10-05T16:41:05.902Z,1.27
2022-10-05T16:43:44.987Z,1.40
2022-10-05T16:46:27.557Z,1.73
2022-10-05T16:49:04.241Z,1.40
2022-10-05T16:51:42.658Z,1.63
2022-10-05T16:54:19.081Z,1.60
2022-10-05T16:56:52.563Z,1.63
2022-10-05T17:00:04.428Z,1.97
2022-10-05T17:03:04.710Z,1.50
2022-10-05T17:06:00.868Z,1.97
2022-10-05T17:09:07.263Z,1.50
2022-10-05T17:12:59.551Z,2.63
2022-10-05T17:15:37.599Z,2.07
2022-10-05T17:22:55.770Z,1.70
2022-10-05T17:37:06.270Z,1.60
2022-10-05T17:39:50.289Z,1.67
2022-10-05T17:42:46.222Z,1.47
2022-10-05T17:45:53.898Z,1.67
2022-10-05T17:48:39.896Z,2.00
2022-10-05T17:51:52.419Z,2.53
2022-10-05T17:54:41.085Z,1.70
2022-10-05T17:57:22.663Z,2.40
2022-10-05T18:00:00.391Z,2.17
2022-10-05T18:02:49.396Z,1.97
2022-10-05T18:05:28.152Z,2.03
2022-10-05T18:08:31.800Z,2.17
2022-10-05T18:11:17.234Z,2.10
2022-10-05T18:13:50.359Z,7.70
2022-10-05T18:16:51.450Z,9.90
2022-10-05T18:19:22.948Z,3.60
2022-10-05T18:22:14.812Z,2.20
2022-10-05T18:24:55.785Z,2.37
2022-10-05T18:27:51.299Z,2.77
2022-10-05T18:30:22.992Z,2.40
2022-10-05T18:33:29.968Z,2.23
2022-10-05T18:36:07.877Z,2.27
2022-10-05T18:38:52.929Z,2.13
2022-10-05T18:41:28.672Z,2.50
2022-10-05T18:44:06.721Z,2.90
2022-10-05T18:46:43.502Z,2.10
2022-10-05T18:49:27.784Z,1.90
2022-10-05T18:52:03.740Z,2.87
2022-10-05T18:54:44.684Z,2.13
2022-10-05T18:57:43.941Z,2.43
2022-10-05T19:00:18.338Z,2.23
2022-10-05T19:02:49.598Z,2.10
2022-10-05T19:05:47.583Z,2.00
2022-10-05T19:08:24.307Z,2.47
2022-10-05T19:10:57.105Z,2.40
2022-10-05T19:13:38.663Z,2.07
2022-10-05T19:16:22.463Z,2.00
2022-10-05T19:19:07.759Z,2.10
2022-10-05T19:21:44.920Z,2.40
2022-10-05T19:24:35.295Z,4.00
2022-10-05T19:27:10.874Z,7.30
2022-10-05T19:29:56.017Z,11.80
2022-10-05T19:32:34.778Z,3.10
2022-10-05T19:35:18.741Z,2.40
2022-10-05T19:37:53.712Z,1.90
2022-10-05T19:40:28.289Z,1.97
2022-10-05T19:43:14.365Z,2.30
2022-10-05T19:45:48.532Z,1.83
2022-10-05T19:48:27.886Z,2.10
2022-10-05T19:50:58.842Z,2.37
2022-10-05T19:53:30.581Z,2.40
2022-10-05T19:56:17.055Z,2.17
2022-10-05T19:58:45.168Z,2.27
2022-10-05T20:01:24.135Z,2.40
2022-10-05T20:03:54.400Z,2.73
2022-10-05T20:06:22.995Z,2.43
2022-10-05T20:08:52.522Z,3.63
2022-10-05T20:11:22.555Z,2.40
2022-10-05T20:14:18.551Z,2.30
2022-10-05T20:17:04.221Z,2.67
2022-10-05T20:19:57.671Z,3.30
2022-10-05T20:22:34.286Z,2.20
2022-10-05T20:25:05.716Z,2.30
2022-10-05T20:27:50.829Z,1.70
2022-10-05T20:30:20.839Z,1.87
2022-10-05T20:32:49.388Z,2.40
2022-10-05T20:35:22.125Z,2.60
2022-10-05T20:37:50.962Z,2.10
2022-10-05T20:40:20.350Z,2.70
2022-10-05T20:42:48.971Z,3.07
2022-10-05T20:45:17.300Z,2.30
2022-10-05T20:47:46.651Z,1.80
2022-10-05T20:50:15.707Z,2.00
2022-10-05T20:52:45.073Z,2.37
2022-10-05T20:55:13.539Z,2.00
2022-10-05T20:57:42.594Z,2.03
2022-10-05T21:00:12.754Z,2.43
2022-10-05T21:02:40.816Z,2.20
2022-10-05T21:05:09.763Z,2.03
2022-10-05T21:07:37.776Z,2.03
2022-10-05T21:10:08.381Z,2.60
2022-10-05T21:12:36.337Z,2.00
2022-10-05T21:15:05.026Z,2.37
2022-10-05T21:17:35.155Z,1.77
2022-10-05T21:20:03.216Z,3.63
2022-10-05T21:22:31.185Z,3.83
2022-10-05T21:24:59.128Z,2.30
2022-10-05T21:27:28.822Z,2.93
2022-10-05T21:29:56.778Z,2.00
2022-10-05T21:32:24.844Z,2.90
2022-10-05T21:34:52.787Z,1.90
2022-10-05T21:37:20.750Z,2.00
2022-10-05T21:39:48.693Z,2.20
2022-10-05T21:42:16.640Z,2.40
2022-10-05T21:44:45.959Z,2.17
2022-10-05T21:47:14.008Z,2.90
2022-10-05T21:49:42.769Z,2.03
2022-10-05T21:52:10.725Z,2.63
2022-10-05T21:54:38.728Z,2.50
2022-10-05T21:57:06.710Z,2.60
2022-10-05T21:59:35.526Z,2.30
2022-10-05T22:02:05.169Z,2.13
2022-10-05T22:04:33.152Z,2.90
2022-10-05T22:07:01.196Z,2.90
2022-10-05T22:09:29.180Z,2.60
2022-10-05T22:11:57.334Z,2.50
2022-10-05T22:14:25.349Z,2.60
2022-10-05T22:16:53.973Z,2.20
2022-10-05T22:19:23.291Z,2.20
2022-10-05T22:21:51.744Z,1.80
2022-10-05T22:24:19.838Z,2.80
2022-10-05T22:26:51.359Z,2.57
2022-10-05T22:29:20.413Z,1.73
2022-10-05T22:31:49.209Z,2.80
2022-10-05T22:34:17.878Z,2.50
2022-10-05T22:36:47.504Z,2.30
2022-10-05T22:39:15.730Z,2.00
2022-10-05T22:41:43.797Z,2.20
2022-10-05T22:44:11.936Z,2.93
2022-10-05T22:46:39.968Z,2.30
2022-10-05T22:49:07.882Z,1.80
2022-10-05T22:51:35.845Z,1.97
2022-10-05T22:54:05.374Z,1.83
2022-10-05T22:56:33.529Z,1.93
2022-10-05T22:59:01.515Z,2.07
2022-10-05T23:01:29.594Z,2.23
2022-10-05T23:03:57.725Z,2.20
2022-10-05T23:06:26.634Z,2.00
2022-10-05T23:08:55.427Z,2.20
2022-10-05T23:11:27.018Z,1.63
2022-10-05T23:13:56.853Z,2.20
2022-10-05T23:16:28.449Z,2.23
2022-10-05T23:18:57.075Z,2.10
2022-10-05T23:21:26.722Z,2.40
2022-10-05T23:23:55.007Z,2.60
2022-10-05T23:26:25.982Z,2.30
2022-10-05T23:28:54.483Z,2.13
2022-10-05T23:31:24.224Z,2.87
2022-10-05T23:33:52.609Z,2.77
2022-10-05T23:36:22.566Z,3.50
2022-10-05T23:38:51.135Z,3.07
2022-10-05T23:41:20.561Z,2.10
2022-10-05T23:43:50.203Z,2.43
2022-10-05T23:46:18.741Z,2.07
2022-10-05T23:48:46.729Z,2.57
2022-10-05T23:51:15.787Z,2.60
2022-10-05T23:53:43.793Z,2.73
2022-10-05T23:56:11.823Z,2.13
2022-10-05T23:58:40.173Z,2.83
